sensor_id;sensor_type;location;lat;lon;timestamp;P1;durP1;ratioP1;P2;durP2;ratioP2
46084;SDS011;31823;47.032;8.310;2022-12-18T00:00:41;76.30;;;32.40;;
46084;SDS011;31823;47.032;8.310;2022-12-18T00:03:07;72.72;;;30.38;;
46084;SDS011;31823;47.032;8.310;2022-12-18T00:05:33;82.60;;;31.98;;
46084;SDS011;31823;47.032;8.310;2022-12-18T00:07:58;86.43;;;32.38;;
46084;SDS011;31823;47.032;8.310;2022-12-18T00:10:24;78.72;;;32.60;;
46084;SDS011;31823;47.032;8.310;2022-12-18T00:12:49;73.28;;;30.98;;
46084;SDS011;31823;47.032;8.310;2022-12-18T00:15:15;69.50;;;30.30;;
46084;SDS011;31823;47.032;8.310;2022-12-18T00:17:40;77.18;;;30.30;;
46084;SDS011;31823;47.032;8.310;2022-12-18T00:20:06;74.50;;;31.02;;
46084;SDS011;31823;47.032;8.310;2022-12-18T00:22:32;75.22;;;31.35;;
46084;SDS011;31823;47.032;8.310;2022-12-18T00:24:58;77.88;;;31.15;;
46084;SDS011;31823;47.032;8.310;2022-12-18T00:27:24;73.78;;;30.65;;
46084;SDS011;31823;47.032;8.310;2022-12-18T00:29:49;83.20;;;31.60;;
46084;SDS011;31823;47.032;8.310;2022-12-18T00:32:15;76.70;;;31.40;;
46084;SDS011;31823;47.032;8.310;2022-12-18T00:34:41;79.03;;;31.95;;
46084;SDS011;31823;47.032;8.310;2022-12-18T00:37:06;82.22;;;32.28;;
46084;SDS011;31823;47.032;8.310;2022-12-18T00:39:32;80.55;;;31.40;;
46084;SDS011;31823;47.032;8.310;2022-12-18T00:41:58;88.05;;;33.88;;
46084;SDS011;31823;47.032;8.310;2022-12-18T00:44:42;83.47;;;33.30;;
46084;SDS011;31823;47.032;8.310;2022-12-18T00:47:07;80.10;;;32.28;;
46084;SDS011;31823;47.032;8.310;2022-12-18T00:49:33;83.15;;;31.85;;
46084;SDS011;31823;47.032;8.310;2022-12-18T00:51:58;78.68;;;32.38;;
46084;SDS011;31823;47.032;8.310;2022-12-18T00:54:24;75.32;;;31.58;;
46084;SDS011;31823;47.032;8.310;2022-12-18T00:56:49;75.50;;;30.48;;
46084;SDS011;31823;47.032;8.310;2022-12-18T00:59:15;76.30;;;29.65;;
46084;SDS011;31823;47.032;8.310;2022-12-18T01:01:42;78.63;;;31.23;;
46084;SDS011;31823;47.032;8.310;2022-12-18T01:04:09;79.60;;;31.27;;
46084;SDS011;31823;47.032;8.310;2022-12-18T01:06:35;76.40;;;30.77;;
46084;SDS011;31823;47.032;8.310;2022-12-18T01:09:00;80.18;;;31.40;;
46084;SDS011;31823;47.032;8.310;2022-12-18T01:11:26;73.38;;;28.95;;
46084;SDS011;31823;47.032;8.310;2022-12-18T01:13:52;72.05;;;29.88;;
46084;SDS011;31823;47.032;8.310;2022-12-18T01:16:19;75.90;;;30.80;;
46084;SDS011;31823;47.032;8.310;2022-12-18T01:18:45;71.40;;;30.73;;
46084;SDS011;31823;47.032;8.310;2022-12-18T01:21:13;79.13;;;30.95;;
46084;SDS011;31823;47.032;8.310;2022-12-18T01:23:40;78.82;;;30.33;;
46084;SDS011;31823;47.032;8.310;2022-12-18T01:26:11;69.78;;;29.33;;
46084;SDS011;31823;47.032;8.310;2022-12-18T01:28:39;72.45;;;30.13;;
46084;SDS011;31823;47.032;8.310;2022-12-18T01:31:16;73.65;;;29.63;;
46084;SDS011;31823;47.032;8.310;2022-12-18T01:33:42;72.63;;;30.70;;
46084;SDS011;31823;47.032;8.310;2022-12-18T01:36:11;76.80;;;31.80;;
46084;SDS011;31823;47.032;8.310;2022-12-18T01:38:44;77.20;;;30.75;;
46084;SDS011;31823;47.032;8.310;2022-12-18T01:41:10;76.90;;;31.50;;
46084;SDS011;31823;47.032;8.310;2022-12-18T01:43:43;75.70;;;31.02;;
46084;SDS011;31823;47.032;8.310;2022-12-18T01:46:15;79.50;;;31.73;;
46084;SDS011;31823;47.032;8.310;2022-12-18T01:48:41;83.15;;;31.42;;
46084;SDS011;31823;47.032;8.310;2022-12-18T01:51:10;72.55;;;30.55;;
46084;SDS011;31823;47.032;8.310;2022-12-18T01:53:36;79.07;;;32.47;;
46084;SDS011;31823;47.032;8.310;2022-12-18T01:56:05;75.38;;;30.15;;
46084;SDS011;31823;47.032;8.310;2022-12-18T01:58:46;68.70;;;30.67;;
46084;SDS011;31823;47.032;8.310;2022-12-18T02:01:20;69.30;;;28.40;;
46084;SDS011;31823;47.032;8.310;2022-12-18T02:03:48;73.85;;;30.38;;
46084;SDS011;31823;47.032;8.310;2022-12-18T02:11:24;67.78;;;28.67;;
46084;SDS011;31823;47.032;8.310;2022-12-18T02:16:58;65.72;;;27.17;;
46084;SDS011;31823;47.032;8.310;2022-12-18T02:24:48;64.95;;;27.40;;
46084;SDS011;31823;47.032;8.310;2022-12-18T02:27:38;74.45;;;31.27;;
46084;SDS011;31823;47.032;8.310;2022-12-18T02:30:06;71.13;;;30.52;;
46084;SDS011;31823;47.032;8.310;2022-12-18T02:32:39;64.32;;;28.80;;
46084;SDS011;31823;47.032;8.310;2022-12-18T02:37:50;63.10;;;27.65;;
46084;SDS011;31823;47.032;8.310;2022-12-18T02:40:22;59.28;;;26.05;;
46084;SDS011;31823;47.032;8.310;2022-12-18T02:42:49;65.57;;;27.25;;
46084;SDS011;31823;47.032;8.310;2022-12-18T02:45:15;63.50;;;27.50;;
46084;SDS011;31823;47.032;8.310;2022-12-18T02:47:42;62.92;;;27.67;;
46084;SDS011;31823;47.032;8.310;2022-12-18T02:50:13;61.45;;;26.23;;
46084;SDS011;31823;47.032;8.310;2022-12-18T02:56:33;56.85;;;26.02;;
46084;SDS011;31823;47.032;8.310;2022-12-18T03:01:28;58.38;;;25.65;;
46084;SDS011;31823;47.032;8.310;2022-12-18T03:06:49;57.72;;;26.15;;
46084;SDS011;31823;47.032;8.310;2022-12-18T03:09:21;60.95;;;26.65;;
46084;SDS011;31823;47.032;8.310;2022-12-18T03:11:54;64.82;;;25.13;;
46084;SDS011;31823;47.032;8.310;2022-12-18T03:14:42;65.95;;;27.65;;
46084;SDS011;31823;47.032;8.310;2022-12-18T03:17:10;64.95;;;27.67;;
46084;SDS011;31823;47.032;8.310;2022-12-18T03:19:41;70.15;;;27.33;;
46084;SDS011;31823;47.032;8.310;2022-12-18T03:22:08;65.95;;;27.42;;
46084;SDS011;31823;47.032;8.310;2022-12-18T03:24:35;66.93;;;27.25;;
46084;SDS011;31823;47.032;8.310;2022-12-18T03:27:05;65.88;;;28.98;;
46084;SDS011;31823;47.032;8.310;2022-12-18T03:32:10;70.47;;;28.60;;
46084;SDS011;31823;47.032;8.310;2022-12-18T03:34:40;70.55;;;28.80;;
46084;SDS011;31823;47.032;8.310;2022-12-18T03:37:07;67.43;;;27.95;;
46084;SDS011;31823;47.032;8.310;2022-12-18T03:39:33;69.07;;;26.27;;
46084;SDS011;31823;47.032;8.310;2022-12-18T03:44:42;57.97;;;25.63;;
46084;SDS011;31823;47.032;8.310;2022-12-18T03:49:55;66.28;;;27.58;;
46084;SDS011;31823;47.032;8.310;2022-12-18T03:52:46;62.33;;;26.88;;
46084;SDS011;31823;47.032;8.310;2022-12-18T03:55:31;61.58;;;25.38;;
46084;SDS011;31823;47.032;8.310;2022-12-18T03:57:59;64.70;;;26.95;;
46084;SDS011;31823;47.032;8.310;2022-12-18T04:00:27;58.58;;;25.35;;
46084;SDS011;31823;47.032;8.310;2022-12-18T04:02:54;59.63;;;26.08;;
46084;SDS011;31823;47.032;8.310;2022-12-18T04:05:21;55.60;;;24.65;;
46084;SDS011;31823;47.032;8.310;2022-12-18T04:07:51;56.80;;;23.55;;
46084;SDS011;31823;47.032;8.310;2022-12-18T04:10:17;60.83;;;24.88;;
46084;SDS011;31823;47.032;8.310;2022-12-18T04:12:43;57.78;;;25.17;;
46084;SDS011;31823;47.032;8.310;2022-12-18T04:15:10;56.67;;;24.30;;
46084;SDS011;31823;47.032;8.310;2022-12-18T04:17:36;56.05;;;24.75;;
46084;SDS011;31823;47.032;8.310;2022-12-18T04:20:03;52.40;;;24.15;;
46084;SDS011;31823;47.032;8.310;2022-12-18T04:22:29;52.97;;;23.33;;
46084;SDS011;31823;47.032;8.310;2022-12-18T04:24:54;52.03;;;22.85;;
46084;SDS011;31823;47.032;8.310;2022-12-18T04:27:20;50.30;;;21.40;;
46084;SDS011;31823;47.032;8.310;2022-12-18T04:29:46;48.10;;;21.08;;
46084;SDS011;31823;47.032;8.310;2022-12-18T04:32:11;51.60;;;22.25;;
46084;SDS011;31823;47.032;8.310;2022-12-18T04:34:37;55.08;;;23.70;;
46084;SDS011;31823;47.032;8.310;2022-12-18T04:37:02;54.55;;;23.42;;
46084;SDS011;31823;47.032;8.310;2022-12-18T04:39:28;55.03;;;23.95;;
46084;SDS011;31823;47.032;8.310;2022-12-18T04:41:53;55.58;;;23.20;;
46084;SDS011;31823;47.032;8.310;2022-12-18T04:44:19;51.03;;;23.30;;
46084;SDS011;31823;47.032;8.310;2022-12-18T04:46:44;53.42;;;23.90;;
46084;SDS011;31823;47.032;8.310;2022-12-18T04:49:10;56.45;;;22.58;;
46084;SDS011;31823;47.032;8.310;2022-12-18T04:51:36;52.40;;;23.15;;
46084;SDS011;31823;47.032;8.310;2022-12-18T04:54:02;50.38;;;22.42;;
46084;SDS011;31823;47.032;8.310;2022-12-18T04:56:28;52.55;;;22.40;;
46084;SDS011;31823;47.032;8.310;2022-12-18T04:58:55;53.03;;;22.50;;
46084;SDS011;31823;47.032;8.310;2022-12-18T05:01:20;51.35;;;22.40;;
46084;SDS011;31823;47.032;8.310;2022-12-18T05:03:46;49.75;;;21.08;;
46084;SDS011;31823;47.032;8.310;2022-12-18T05:06:12;49.58;;;21.85;;
46084;SDS011;31823;47.032;8.310;2022-12-18T05:08:37;52.45;;;24.83;;
46084;SDS011;31823;47.032;8.310;2022-12-18T05:11:07;54.08;;;22.92;;
46084;SDS011;31823;47.032;8.310;2022-12-18T05:13:35;50.85;;;22.25;;
46084;SDS011;31823;47.032;8.310;2022-12-18T05:16:01;52.88;;;22.35;;
46084;SDS011;31823;47.032;8.310;2022-12-18T05:18:27;54.63;;;23.42;;
46084;SDS011;31823;47.032;8.310;2022-12-18T05:20:53;55.03;;;22.92;;
46084;SDS011;31823;47.032;8.310;2022-12-18T05:23:19;53.45;;;21.75;;
46084;SDS011;31823;47.032;8.310;2022-12-18T05:28:26;63.45;;;25.05;;
46084;SDS011;31823;47.032;8.310;2022-12-18T05:30:54;62.13;;;24.38;;
46084;SDS011;31823;47.032;8.310;2022-12-18T05:33:22;58.90;;;24.20;;
46084;SDS011;31823;47.032;8.310;2022-12-18T05:35:53;59.35;;;24.77;;
46084;SDS011;31823;47.032;8.310;2022-12-18T05:38:21;58.00;;;25.15;;
46084;SDS011;31823;47.032;8.310;2022-12-18T05:40:48;58.88;;;24.83;;
46084;SDS011;31823;47.032;8.310;2022-12-18T05:43:15;56.63;;;23.38;;
46084;SDS011;31823;47.032;8.310;2022-12-18T05:45:41;60.45;;;21.95;;
46084;SDS011;31823;47.032;8.310;2022-12-18T05:48:07;55.70;;;21.30;;
46084;SDS011;31823;47.032;8.310;2022-12-18T05:50:34;48.03;;;22.13;;
46084;SDS011;31823;47.032;8.310;2022-12-18T05:53:04;51.88;;;21.33;;
46084;SDS011;31823;47.032;8.310;2022-12-18T05:55:39;58.15;;;22.40;;
46084;SDS011;31823;47.032;8.310;2022-12-18T05:58:06;49.88;;;20.50;;
46084;SDS011;31823;47.032;8.310;2022-12-18T06:00:34;52.28;;;20.83;;
46084;SDS011;31823;47.032;8.310;2022-12-18T06:03:04;49.85;;;21.52;;
46084;SDS011;31823;47.032;8.310;2022-12-18T06:05:34;51.60;;;21.23;;
46084;SDS011;31823;47.032;8.310;2022-12-18T06:08:00;51.80;;;21.90;;
46084;SDS011;31823;47.032;8.310;2022-12-18T06:10:26;48.60;;;21.27;;
46084;SDS011;31823;47.032;8.310;2022-12-18T06:12:51;48.28;;;20.55;;
46084;SDS011;31823;47.032;8.310;2022-12-18T06:15:17;43.97;;;20.35;;
46084;SDS011;31823;47.032;8.310;2022-12-18T06:17:42;49.67;;;19.40;;
46084;SDS011;31823;47.032;8.310;2022-12-18T06:20:08;50.28;;;21.63;;
46084;SDS011;31823;47.032;8.310;2022-12-18T06:22:34;48.17;;;21.52;;
46084;SDS011;31823;47.032;8.310;2022-12-18T06:25:00;48.05;;;20.33;;
46084;SDS011;31823;47.032;8.310;2022-12-18T06:27:25;50.17;;;20.92;;
46084;SDS011;31823;47.032;8.310;2022-12-18T06:29:51;53.67;;;20.55;;
46084;SDS011;31823;47.032;8.310;2022-12-18T06:32:16;52.17;;;21.33;;
46084;SDS011;31823;47.032;8.310;2022-12-18T06:34:42;48.13;;;19.27;;
46084;SDS011;31823;47.032;8.310;2022-12-18T06:37:07;52.03;;;22.25;;
46084;SDS011;31823;47.032;8.310;2022-12-18T06:39:33;51.08;;;20.73;;
46084;SDS011;31823;47.032;8.310;2022-12-18T06:41:58;50.00;;;20.77;;
46084;SDS011;31823;47.032;8.310;2022-12-18T06:44:24;51.70;;;20.98;;
46084;SDS011;31823;47.032;8.310;2022-12-18T06:46:50;50.25;;;20.33;;
46084;SDS011;31823;47.032;8.310;2022-12-18T06:49:15;51.30;;;20.40;;
46084;SDS011;31823;47.032;8.310;2022-12-18T06:51:41;48.60;;;21.42;;
46084;SDS011;31823;47.032;8.310;2022-12-18T06:54:07;45.35;;;20.35;;
46084;SDS011;31823;47.032;8.310;2022-12-18T06:56:33;45.40;;;20.75;;
46084;SDS011;31823;47.032;8.310;2022-12-18T06:58:59;48.00;;;19.88;;
46084;SDS011;31823;47.032;8.310;2022-12-18T07:01:25;48.38;;;19.23;;
46084;SDS011;31823;47.032;8.310;2022-12-18T07:03:52;38.78;;;18.88;;
46084;SDS011;31823;47.032;8.310;2022-12-18T07:06:19;43.30;;;18.77;;
46084;SDS011;31823;47.032;8.310;2022-12-18T07:08:46;41.75;;;18.23;;
46084;SDS011;31823;47.032;8.310;2022-12-18T07:11:13;39.03;;;18.63;;
46084;SDS011;31823;47.032;8.310;2022-12-18T07:13:39;37.75;;;17.13;;
46084;SDS011;31823;47.032;8.310;2022-12-18T07:16:06;40.22;;;17.15;;
46084;SDS011;31823;47.032;8.310;2022-12-18T07:18:32;39.58;;;18.27;;
46084;SDS011;31823;47.032;8.310;2022-12-18T07:20:57;41.30;;;17.85;;
46084;SDS011;31823;47.032;8.310;2022-12-18T07:23:23;39.50;;;17.35;;
46084;SDS011;31823;47.032;8.310;2022-12-18T07:25:48;44.58;;;18.25;;
46084;SDS011;31823;47.032;8.310;2022-12-18T07:28:14;48.38;;;19.55;;
46084;SDS011;31823;47.032;8.310;2022-12-18T07:30:39;42.65;;;19.48;;
46084;SDS011;31823;47.032;8.310;2022-12-18T07:33:05;42.67;;;18.63;;
46084;SDS011;31823;47.032;8.310;2022-12-18T07:35:32;42.17;;;18.25;;
46084;SDS011;31823;47.032;8.310;2022-12-18T07:37:58;41.28;;;17.58;;
46084;SDS011;31823;47.032;8.310;2022-12-18T07:40:26;41.70;;;18.02;;
46084;SDS011;31823;47.032;8.310;2022-12-18T07:42:51;44.88;;;18.58;;
46084;SDS011;31823;47.032;8.310;2022-12-18T07:45:17;43.50;;;17.63;;
46084;SDS011;31823;47.032;8.310;2022-12-18T07:47:43;45.67;;;19.60;;
46084;SDS011;31823;47.032;8.310;2022-12-18T07:50:08;41.53;;;18.70;;
46084;SDS011;31823;47.032;8.310;2022-12-18T07:52:34;36.67;;;17.73;;
46084;SDS011;31823;47.032;8.310;2022-12-18T07:54:59;45.53;;;19.98;;
46084;SDS011;31823;47.032;8.310;2022-12-18T07:57:25;43.28;;;19.55;;
46084;SDS011;31823;47.032;8.310;2022-12-18T07:59:50;45.80;;;19.00;;
46084;SDS011;31823;47.032;8.310;2022-12-18T08:02:16;47.83;;;19.40;;
46084;SDS011;31823;47.032;8.310;2022-12-18T08:04:42;43.10;;;19.58;;
46084;SDS011;31823;47.032;8.310;2022-12-18T08:07:07;42.90;;;19.30;;
46084;SDS011;31823;47.032;8.310;2022-12-18T08:09:33;47.97;;;20.52;;
46084;SDS011;31823;47.032;8.310;2022-12-18T08:11:58;47.70;;;20.45;;
46084;SDS011;31823;47.032;8.310;2022-12-18T08:14:24;47.50;;;19.80;;
46084;SDS011;31823;47.032;8.310;2022-12-18T08:16:49;48.25;;;20.15;;
46084;SDS011;31823;47.032;8.310;2022-12-18T08:19:15;48.63;;;20.50;;
46084;SDS011;31823;47.032;8.310;2022-12-18T08:21:41;46.20;;;19.80;;
46084;SDS011;31823;47.032;8.310;2022-12-18T08:24:06;51.20;;;22.20;;
46084;SDS011;31823;47.032;8.310;2022-12-18T08:26:33;48.78;;;20.52;;
46084;SDS011;31823;47.032;8.310;2022-12-18T08:28:59;48.25;;;20.38;;
46084;SDS011;31823;47.032;8.310;2022-12-18T08:31:26;47.38;;;21.33;;
46084;SDS011;31823;47.032;8.310;2022-12-18T08:33:53;44.53;;;19.73;;
46084;SDS011;31823;47.032;8.310;2022-12-18T08:36:20;54.60;;;23.67;;
46084;SDS011;31823;47.032;8.310;2022-12-18T08:38:45;45.53;;;21.17;;
46084;SDS011;31823;47.032;8.310;2022-12-18T08:41:12;47.38;;;21.98;;
46084;SDS011;31823;47.032;8.310;2022-12-18T08:43:39;44.58;;;19.58;;
46084;SDS011;31823;47.032;8.310;2022-12-18T08:46:24;43.47;;;19.52;;
46084;SDS011;31823;47.032;8.310;2022-12-18T08:48:51;42.33;;;18.65;;
46084;SDS011;31823;47.032;8.310;2022-12-18T08:51:18;44.75;;;19.52;;
46084;SDS011;31823;47.032;8.310;2022-12-18T08:53:44;41.92;;;19.10;;
46084;SDS011;31823;47.032;8.310;2022-12-18T08:56:10;40.53;;;18.63;;
46084;SDS011;31823;47.032;8.310;2022-12-18T08:58:37;42.83;;;18.92;;
46084;SDS011;31823;47.032;8.310;2022-12-18T09:01:03;48.05;;;20.40;;
46084;SDS011;31823;47.032;8.310;2022-12-18T09:03:30;47.15;;;19.40;;
46084;SDS011;31823;47.032;8.310;2022-12-18T09:05:56;51.78;;;21.38;;
46084;SDS011;31823;47.032;8.310;2022-12-18T09:08:21;48.67;;;21.27;;
46084;SDS011;31823;47.032;8.310;2022-12-18T09:10:48;45.10;;;20.55;;
46084;SDS011;31823;47.032;8.310;2022-12-18T09:13:15;46.78;;;21.55;;
46084;SDS011;31823;47.032;8.310;2022-12-18T09:15:42;40.65;;;19.38;;
46084;SDS011;31823;47.032;8.310;2022-12-18T09:18:10;42.30;;;21.02;;
46084;SDS011;31823;47.032;8.310;2022-12-18T09:20:36;45.88;;;20.08;;
46084;SDS011;31823;47.032;8.310;2022-12-18T09:23:03;40.75;;;18.88;;
46084;SDS011;31823;47.032;8.310;2022-12-18T09:25:30;43.90;;;20.45;;
46084;SDS011;31823;47.032;8.310;2022-12-18T09:27:58;43.38;;;20.95;;
46084;SDS011;31823;47.032;8.310;2022-12-18T09:30:24;41.15;;;19.73;;
46084;SDS011;31823;47.032;8.310;2022-12-18T09:32:49;45.25;;;20.10;;
46084;SDS011;31823;47.032;8.310;2022-12-18T09:35:15;43.25;;;19.73;;
46084;SDS011;31823;47.032;8.310;2022-12-18T09:37:40;36.83;;;18.33;;
46084;SDS011;31823;47.032;8.310;2022-12-18T09:40:12;39.92;;;19.38;;
46084;SDS011;31823;47.032;8.310;2022-12-18T09:42:43;38.17;;;18.27;;
46084;SDS011;31823;47.032;8.310;2022-12-18T09:45:13;36.35;;;18.23;;
46084;SDS011;31823;47.032;8.310;2022-12-18T09:47:40;42.13;;;20.33;;
46084;SDS011;31823;47.032;8.310;2022-12-18T09:50:18;43.00;;;20.42;;
46084;SDS011;31823;47.032;8.310;2022-12-18T09:52:52;37.28;;;18.05;;
46084;SDS011;31823;47.032;8.310;2022-12-18T09:58:05;39.75;;;18.77;;
46084;SDS011;31823;47.032;8.310;2022-12-18T10:00:32;43.75;;;20.33;;
46084;SDS011;31823;47.032;8.310;2022-12-18T10:03:08;46.60;;;21.33;;
46084;SDS011;31823;47.032;8.310;2022-12-18T10:08:24;40.58;;;18.90;;
46084;SDS011;31823;47.032;8.310;2022-12-18T10:10:55;41.10;;;19.43;;
46084;SDS011;31823;47.032;8.310;2022-12-18T10:24:38;42.63;;;19.38;;
46084;SDS011;31823;47.032;8.310;2022-12-18T10:27:16;39.90;;;20.02;;
46084;SDS011;31823;47.032;8.310;2022-12-18T10:29:43;40.08;;;18.30;;
46084;SDS011;31823;47.032;8.310;2022-12-18T10:32:16;51.08;;;22.13;;
46084;SDS011;31823;47.032;8.310;2022-12-18T10:34:47;45.33;;;20.20;;
46084;SDS011;31823;47.032;8.310;2022-12-18T10:37:17;43.17;;;19.90;;
46084;SDS011;31823;47.032;8.310;2022-12-18T10:39:44;41.00;;;20.05;;
46084;SDS011;31823;47.032;8.310;2022-12-18T10:42:14;45.92;;;20.95;;
46084;SDS011;31823;47.032;8.310;2022-12-18T10:44:43;45.88;;;20.80;;
46084;SDS011;31823;47.032;8.310;2022-12-18T10:47:11;45.85;;;21.13;;
46084;SDS011;31823;47.032;8.310;2022-12-18T10:49:42;45.03;;;21.98;;
46084;SDS011;31823;47.032;8.310;2022-12-18T10:52:19;46.13;;;22.23;;
46084;SDS011;31823;47.032;8.310;2022-12-18T10:54:53;45.08;;;20.58;;
46084;SDS011;31823;47.032;8.310;2022-12-18T11:00:01;43.33;;;20.13;;
46084;SDS011;31823;47.032;8.310;2022-12-18T11:02:46;41.15;;;20.02;;
46084;SDS011;31823;47.032;8.310;2022-12-18T11:05:22;49.17;;;20.95;;
46084;SDS011;31823;47.032;8.310;2022-12-18T11:07:56;43.88;;;20.02;;
46084;SDS011;31823;47.032;8.310;2022-12-18T11:10:28;44.33;;;20.63;;
46084;SDS011;31823;47.032;8.310;2022-12-18T11:13:08;40.95;;;19.55;;
46084;SDS011;31823;47.032;8.310;2022-12-18T11:15:45;42.53;;;20.35;;
46084;SDS011;31823;47.032;8.310;2022-12-18T11:18:30;45.25;;;20.38;;
46084;SDS011;31823;47.032;8.310;2022-12-18T11:21:05;45.72;;;20.92;;
46084;SDS011;31823;47.032;8.310;2022-12-18T11:23:33;41.00;;;19.30;;
46084;SDS011;31823;47.032;8.310;2022-12-18T11:26:01;42.30;;;19.17;;
46084;SDS011;31823;47.032;8.310;2022-12-18T11:28:29;44.78;;;20.15;;
46084;SDS011;31823;47.032;8.310;2022-12-18T11:36:39;40.83;;;18.48;;
46084;SDS011;31823;47.032;8.310;2022-12-18T11:39:10;41.80;;;19.17;;
46084;SDS011;31823;47.032;8.310;2022-12-18T11:41:50;46.28;;;20.23;;
46084;SDS011;31823;47.032;8.310;2022-12-18T11:44:44;39.40;;;18.95;;
46084;SDS011;31823;47.032;8.310;2022-12-18T11:50:19;38.53;;;18.40;;
46084;SDS011;31823;47.032;8.310;2022-12-18T11:52:50;40.17;;;18.48;;
46084;SDS011;31823;47.032;8.310;2022-12-18T11:58:47;38.85;;;18.30;;
46084;SDS011;31823;47.032;8.310;2022-12-18T12:09:45;39.72;;;19.48;;
46084;SDS011;31823;47.032;8.310;2022-12-18T12:17:45;38.40;;;18.13;;
46084;SDS011;31823;47.032;8.310;2022-12-18T12:20:32;40.63;;;18.85;;
46084;SDS011;31823;47.032;8.310;2022-12-18T12:28:57;41.47;;;19.88;;
46084;SDS011;31823;47.032;8.310;2022-12-18T12:34:34;40.25;;;19.30;;
46084;SDS011;31823;47.032;8.310;2022-12-18T12:39:34;43.53;;;20.20;;
46084;SDS011;31823;47.032;8.310;2022-12-18T12:42:03;38.70;;;18.83;;
46084;SDS011;31823;47.032;8.310;2022-12-18T12:44:51;37.72;;;17.98;;
46084;SDS011;31823;47.032;8.310;2022-12-18T12:47:30;38.40;;;18.75;;
46084;SDS011;31823;47.032;8.310;2022-12-18T12:50:01;39.92;;;19.55;;
46084;SDS011;31823;47.032;8.310;2022-12-18T12:54:59;39.20;;;19.05;;
46084;SDS011;31823;47.032;8.310;2022-12-18T12:57:33;38.70;;;18.15;;
46084;SDS011;31823;47.032;8.310;2022-12-18T13:00:05;43.78;;;20.33;;
46084;SDS011;31823;47.032;8.310;2022-12-18T13:02:33;45.42;;;21.33;;
46084;SDS011;31823;47.032;8.310;2022-12-18T13:08:11;38.85;;;19.30;;
46084;SDS011;31823;47.032;8.310;2022-12-18T13:10:48;42.28;;;19.10;;
46084;SDS011;31823;47.032;8.310;2022-12-18T13:13:14;43.97;;;20.33;;
46084;SDS011;31823;47.032;8.310;2022-12-18T13:15:44;41.10;;;20.17;;
46084;SDS011;31823;47.032;8.310;2022-12-18T13:31:01;46.85;;;21.80;;
46084;SDS011;31823;47.032;8.310;2022-12-18T13:33:46;39.05;;;19.73;;
46084;SDS011;31823;47.032;8.310;2022-12-18T13:41:39;33.75;;;17.95;;
46084;SDS011;31823;47.032;8.310;2022-12-18T13:44:12;40.75;;;20.33;;
46084;SDS011;31823;47.032;8.310;2022-12-18T13:46:50;43.63;;;20.10;;
46084;SDS011;31823;47.032;8.310;2022-12-18T13:49:20;37.72;;;18.73;;
46084;SDS011;31823;47.032;8.310;2022-12-18T13:51:50;41.22;;;19.45;;
46084;SDS011;31823;47.032;8.310;2022-12-18T13:56:49;41.67;;;20.55;;
46084;SDS011;31823;47.032;8.310;2022-12-18T13:59:17;42.45;;;19.80;;
46084;SDS011;31823;47.032;8.310;2022-12-18T14:01:54;38.38;;;18.88;;
46084;SDS011;31823;47.032;8.310;2022-12-18T14:04:23;42.80;;;21.00;;
46084;SDS011;31823;47.032;8.310;2022-12-18T14:06:50;37.72;;;19.23;;
46084;SDS011;31823;47.032;8.310;2022-12-18T14:09:28;41.67;;;19.48;;
46084;SDS011;31823;47.032;8.310;2022-12-18T14:11:56;37.47;;;18.30;;
46084;SDS011;31823;47.032;8.310;2022-12-18T14:14:43;39.40;;;18.48;;
46084;SDS011;31823;47.032;8.310;2022-12-18T14:17:12;38.03;;;19.67;;
46084;SDS011;31823;47.032;8.310;2022-12-18T14:19:43;37.67;;;18.92;;
46084;SDS011;31823;47.032;8.310;2022-12-18T14:22:14;35.47;;;17.58;;
46084;SDS011;31823;47.032;8.310;2022-12-18T14:24:43;40.40;;;19.48;;
46084;SDS011;31823;47.032;8.310;2022-12-18T14:27:24;41.88;;;20.40;;
46084;SDS011;31823;47.032;8.310;2022-12-18T14:29:50;37.42;;;18.27;;
46084;SDS011;31823;47.032;8.310;2022-12-18T14:32:20;35.60;;;17.33;;
46084;SDS011;31823;47.032;8.310;2022-12-18T14:34:47;42.10;;;18.48;;
46084;SDS011;31823;47.032;8.310;2022-12-18T14:37:15;37.63;;;18.25;;
46084;SDS011;31823;47.032;8.310;2022-12-18T14:39:52;34.28;;;17.23;;
46084;SDS011;31823;47.032;8.310;2022-12-18T14:42:19;38.90;;;18.55;;
46084;SDS011;31823;47.032;8.310;2022-12-18T14:44:46;40.42;;;17.92;;
46084;SDS011;31823;47.032;8.310;2022-12-18T14:47:16;37.80;;;18.00;;
46084;SDS011;31823;47.032;8.310;2022-12-18T14:49:42;36.72;;;17.48;;
46084;SDS011;31823;47.032;8.310;2022-12-18T14:52:18;34.42;;;17.27;;
46084;SDS011;31823;47.032;8.310;2022-12-18T14:54:51;34.47;;;17.13;;
46084;SDS011;31823;47.032;8.310;2022-12-18T14:57:32;37.10;;;17.15;;
46084;SDS011;31823;47.032;8.310;2022-12-18T15:00:05;25.10;;;13.20;;
46084;SDS011;31823;47.032;8.310;2022-12-18T15:02:31;39.85;;;17.52;;
46084;SDS011;31823;47.032;8.310;2022-12-18T15:05:01;36.03;;;17.33;;
46084;SDS011;31823;47.032;8.310;2022-12-18T15:07:51;35.40;;;16.48;;
46084;SDS011;31823;47.032;8.310;2022-12-18T15:10:20;37.13;;;16.88;;
46084;SDS011;31823;47.032;8.310;2022-12-18T15:12:48;36.33;;;18.13;;
46084;SDS011;31823;47.032;8.310;2022-12-18T15:18:01;36.83;;;18.05;;
46084;SDS011;31823;47.032;8.310;2022-12-18T15:20:55;36.10;;;17.10;;
46084;SDS011;31823;47.032;8.310;2022-12-18T15:23:28;41.03;;;18.30;;
46084;SDS011;31823;47.032;8.310;2022-12-18T15:29:15;33.78;;;17.23;;
46084;SDS011;31823;47.032;8.310;2022-12-18T15:33:38;37.00;;;18.50;;
46084;SDS011;31823;47.032;8.310;2022-12-18T15:36:09;34.90;;;17.67;;
46084;SDS011;31823;47.032;8.310;2022-12-18T15:38:35;37.20;;;16.60;;
46084;SDS011;31823;47.032;8.310;2022-12-18T15:41:01;41.53;;;18.92;;
46084;SDS011;31823;47.032;8.310;2022-12-18T15:43:27;40.40;;;18.75;;
46084;SDS011;31823;47.032;8.310;2022-12-18T15:46:06;37.33;;;18.90;;
46084;SDS011;31823;47.032;8.310;2022-12-18T15:48:42;41.72;;;18.55;;
46084;SDS011;31823;47.032;8.310;2022-12-18T15:53:56;41.67;;;17.17;;
46084;SDS011;31823;47.032;8.310;2022-12-18T15:56:24;39.95;;;18.20;;
46084;SDS011;31823;47.032;8.310;2022-12-18T15:59:12;41.13;;;18.33;;
46084;SDS011;31823;47.032;8.310;2022-12-18T16:01:41;40.83;;;18.80;;
46084;SDS011;31823;47.032;8.310;2022-12-18T16:04:14;38.72;;;19.20;;
46084;SDS011;31823;47.032;8.310;2022-12-18T16:06:41;44.35;;;20.05;;
46084;SDS011;31823;47.032;8.310;2022-12-18T16:09:07;47.28;;;21.95;;
46084;SDS011;31823;47.032;8.310;2022-12-18T16:11:33;43.28;;;19.77;;
46084;SDS011;31823;47.032;8.310;2022-12-18T16:16:48;45.15;;;19.60;;
46084;SDS011;31823;47.032;8.310;2022-12-18T16:19:34;47.00;;;20.15;;
46084;SDS011;31823;47.032;8.310;2022-12-18T16:21:59;46.17;;;21.13;;
46084;SDS011;31823;47.032;8.310;2022-12-18T16:24:29;44.45;;;21.20;;
46084;SDS011;31823;47.032;8.310;2022-12-18T16:26:57;47.30;;;21.55;;
46084;SDS011;31823;47.032;8.310;2022-12-18T16:29:24;44.85;;;21.02;;
46084;SDS011;31823;47.032;8.310;2022-12-18T16:32:01;46.58;;;21.27;;
46084;SDS011;31823;47.032;8.310;2022-12-18T16:37:06;46.28;;;21.23;;
46084;SDS011;31823;47.032;8.310;2022-12-18T16:39:33;50.47;;;22.20;;
46084;SDS011;31823;47.032;8.310;2022-12-18T16:42:00;47.97;;;21.20;;
46084;SDS011;31823;47.032;8.310;2022-12-18T16:44:27;51.70;;;22.02;;
46084;SDS011;31823;47.032;8.310;2022-12-18T16:46:52;41.28;;;21.08;;